createdAt,value
2022-09-01T06:27:58.762Z,17.40
2022-09-01T06:30:28.046Z,17.40
2022-09-01T06:32:58.278Z,17.50
2022-09-01T06:35:29.630Z,17.60
2022-09-01T06:38:00.472Z,17.60
2022-09-01T06:40:29.498Z,17.70
2022-09-01T06:43:00.929Z,17.70
2022-09-01T06:45:30.294Z,17.80
2022-09-01T06:48:00.054Z,17.80
2022-09-01T06:53:37.291Z,18.00
2022-09-01T06:56:10.608Z,18.10
2022-09-01T06:58:41.781Z,18.20
2022-09-01T07:01:15.885Z,18.30
2022-09-01T07:03:48.190Z,18.40
2022-09-01T08:58:33.778Z,23.90
2022-09-01T09:01:12.081Z,24.50
2022-09-01T09:03:57.709Z,24.60
2022-09-01T09:06:38.550Z,24.50
2022-09-01T09:09:10.022Z,24.50
2022-09-01T09:12:04.375Z,24.60
2022-09-01T09:15:00.720Z,24.70
2022-09-01T09:17:38.098Z,24.80
2022-09-01T09:20:09.400Z,25.00
2022-09-01T09:22:38.901Z,25.10
2022-09-01T09:25:12.638Z,25.20
2022-09-01T09:27:44.395Z,25.40
2022-09-01T09:30:22.830Z,25.50
2022-09-01T09:35:46.835Z,25.70
2022-09-01T09:38:29.180Z,25.90
2022-09-01T09:41:20.340Z,26.00
2022-09-01T09:43:59.216Z,26.10
2022-09-01T09:46:38.082Z,26.10
2022-09-01T09:49:26.333Z,26.20
2022-09-01T09:52:20.076Z,26.40
2022-09-01T09:55:05.384Z,26.40
2022-09-01T09:57:41.928Z,26.50
2022-09-01T10:00:25.004Z,26.50
2022-09-01T10:03:07.880Z,26.60
2022-09-01T10:05:43.197Z,26.80
2022-09-01T10:08:16.755Z,26.80
2022-09-01T10:10:58.193Z,26.80
2022-09-01T10:13:32.494Z,26.80
2022-09-01T10:16:09.136Z,26.80
2022-09-01T10:18:45.420Z,26.80
2022-09-01T10:21:21.861Z,26.90
2022-09-01T10:23:51.141Z,26.80
2022-09-01T10:26:28.220Z,26.90
2022-09-01T10:29:03.012Z,27.00
2022-09-01T10:31:33.206Z,27.10
2022-09-01T10:34:07.153Z,27.20
2022-09-01T10:36:37.945Z,27.40
2022-09-01T10:39:12.306Z,27.50
2022-09-01T10:41:59.881Z,27.80
2022-09-01T10:44:35.636Z,27.90
2022-09-01T10:47:16.486Z,28.00
2022-09-01T10:50:10.306Z,27.90
2022-09-01T10:53:04.990Z,27.80
2022-09-01T10:55:48.619Z,27.70
2022-09-01T11:02:34.744Z,27.70
2022-09-01T11:05:33.138Z,27.60
2022-09-01T11:08:26.524Z,27.70
2022-09-01T11:11:04.220Z,27.80
2022-09-01T11:13:46.267Z,27.90
2022-09-01T11:16:52.411Z,28.00
2022-09-01T11:19:44.439Z,28.00
2022-09-01T11:22:33.493Z,27.90
2022-09-01T11:25:40.029Z,27.90
2022-09-01T11:28:47.785Z,27.90
2022-09-01T11:31:42.339Z,27.90
2022-09-01T11:34:20.862Z,28.10
2022-09-01T11:36:58.977Z,28.10
2022-09-01T11:39:53.600Z,28.10
2022-09-01T11:42:29.137Z,28.20
2022-09-01T11:45:06.552Z,28.30
2022-09-01T11:47:49.963Z,28.50
2022-09-01T11:50:26.498Z,28.70
2022-09-01T11:53:04.077Z,28.80
2022-09-01T11:55:40.489Z,28.90
2022-09-01T11:58:17.827Z,28.80
2022-09-01T12:00:47.568Z,28.90
2022-09-01T12:03:27.640Z,28.80
2022-09-01T12:06:01.279Z,28.80
2022-09-01T12:08:35.344Z,28.60
2022-09-01T12:11:12.614Z,28.40
2022-09-01T12:13:55.388Z,28.40
2022-09-01T12:16:24.465Z,28.40
2022-09-01T12:18:56.721Z,28.40
2022-09-01T12:21:29.731Z,28.40
2022-09-01T12:24:17.590Z,28.40
2022-09-01T12:26:50.531Z,28.40
2022-09-01T12:29:20.032Z,28.50
2022-09-01T12:31:54.294Z,28.50
2022-09-01T12:34:37.716Z,28.50
2022-09-01T12:37:20.941Z,28.40
2022-09-01T12:39:52.617Z,28.30
2022-09-01T12:42:30.075Z,28.00
2022-09-01T12:45:13.226Z,28.00
2022-09-01T12:47:51.796Z,27.90
2022-09-01T12:50:47.532Z,28.00
2022-09-01T12:53:30.567Z,27.90
2022-09-01T12:56:31.222Z,27.80
2022-09-01T12:59:16.047Z,27.90
2022-09-01T13:01:46.327Z,27.80
2022-09-01T13:04:30.935Z,27.80
2022-09-01T13:07:06.905Z,28.00
2022-09-01T13:09:35.803Z,28.10
2022-09-01T13:12:28.633Z,28.20
2022-09-01T13:14:58.741Z,28.30
2022-09-01T13:17:27.372Z,28.30
2022-09-01T13:19:56.055Z,28.10
2022-09-01T13:22:24.973Z,28.10
2022-09-01T13:24:54.056Z,28.00
2022-09-01T13:27:23.776Z,27.90
2022-09-01T13:29:53.549Z,27.90
2022-09-01T13:32:25.209Z,27.80
2022-09-01T13:34:56.036Z,27.70
2022-09-01T13:37:24.627Z,27.60
2022-09-01T13:39:53.478Z,27.60
2022-09-01T13:42:22.807Z,27.60
2022-09-01T13:44:56.877Z,27.40
2022-09-01T13:47:29.802Z,27.40
2022-09-01T13:50:10.341Z,27.30
2022-09-01T13:52:42.797Z,27.20
2022-09-01T13:55:15.967Z,27.20
2022-09-01T13:57:44.690Z,27.20
2022-09-01T14:00:18.215Z,27.20
2022-09-01T14:02:52.429Z,27.10
2022-09-01T14:05:25.784Z,27.10
2022-09-01T14:54:07.403Z,26.10
2022-09-01T14:56:36.053Z,25.90
2022-09-01T14:59:05.183Z,25.90
2022-09-01T15:01:35.061Z,25.90
2022-09-01T15:04:04.464Z,25.90
2022-09-01T15:06:33.976Z,25.90
2022-09-01T15:09:03.428Z,25.80
2022-09-01T15:14:16.826Z,25.60
2022-09-01T15:16:47.125Z,25.50
2022-09-01T15:19:17.065Z,25.40
2022-09-01T15:21:48.322Z,25.30
2022-09-01T15:24:18.603Z,25.20
2022-09-01T15:26:48.595Z,25.20
2022-09-01T15:29:17.163Z,25.10
2022-09-01T15:31:46.987Z,25.10
2022-09-01T15:34:17.172Z,25.00
2022-09-01T15:36:45.923Z,25.00
2022-09-01T15:39:14.680Z,24.80
2022-09-01T15:41:47.218Z,24.80
2022-09-01T15:44:16.301Z,24.70
2022-09-01T15:46:45.677Z,24.60
2022-09-01T15:49:14.434Z,24.50
2022-09-01T15:51:45.214Z,24.30
2022-09-01T15:54:39.483Z,24.20
2022-09-01T15:57:09.444Z,24.10
2022-09-01T16:00:05.314Z,24.00
2022-09-01T16:02:33.950Z,23.80
2022-09-01T16:05:02.510Z,23.70
2022-09-01T16:07:31.042Z,23.60
2022-09-01T16:09:59.583Z,23.60
2022-09-01T16:12:31.178Z,23.50
2022-09-01T16:14:59.743Z,23.30
2022-09-01T16:17:46.698Z,23.30
2022-09-01T16:20:22.594Z,23.20
2022-09-01T16:22:57.687Z,23.10
2022-09-01T16:25:31.688Z,23.00
2022-09-01T16:28:11.420Z,22.90
2022-09-01T16:30:41.053Z,22.90
2022-09-01T16:33:19.950Z,22.80
2022-09-01T16:36:18.593Z,22.70
2022-09-01T16:38:51.848Z,22.70
2022-09-01T16:41:43.935Z,22.60
2022-09-01T16:44:36.993Z,22.60
2022-09-01T16:47:28.210Z,22.50
2022-09-01T16:50:12.912Z,22.50
2022-09-01T16:53:04.133Z,22.40
2022-09-01T16:55:48.653Z,22.30
2022-09-01T16:58:24.877Z,22.20
2022-09-01T17:01:10.016Z,22.10
2022-09-01T17:03:56.678Z,22.10
2022-09-01T17:06:32.246Z,22.00
2022-09-01T17:09:13.080Z,22.00
2022-09-01T17:11:50.108Z,21.90
2022-09-01T17:14:28.014Z,21.90
2022-09-01T17:17:09.286Z,21.80
2022-09-01T17:19:41.828Z,21.80
2022-09-01T17:22:17.374Z,21.80
2022-09-01T17:24:51.519Z,21.80
2022-09-01T17:27:27.632Z,21.80
2022-09-01T17:29:58.401Z,21.70
2022-09-01T17:33:13.052Z,21.70
2022-09-01T17:36:03.956Z,21.70
2022-09-01T17:38:46.281Z,21.70
2022-09-01T17:41:29.301Z,21.70
2022-09-01T17:44:12.411Z,21.70
2022-09-01T17:46:49.799Z,21.70
2022-09-01T17:49:29.720Z,21.70
2022-09-01T17:52:14.962Z,21.70
2022-09-01T17:54:58.755Z,21.70
2022-09-01T17:57:39.063Z,21.80
2022-09-01T18:00:16.141Z,21.70
2022-09-01T18:03:26.169Z,21.80
2022-09-01T18:06:05.163Z,21.80
2022-09-01T18:08:42.011Z,21.70
2022-09-01T18:11:15.856Z,21.60
2022-09-01T18:13:54.131Z,21.60
2022-09-01T18:16:29.534Z,21.60
2022-09-01T18:19:05.912Z,21.50
2022-09-01T18:21:45.247Z,21.50
2022-09-01T18:24:22.454Z,21.50
2022-09-01T18:26:53.183Z,21.50
2022-09-01T18:29:25.172Z,21.50
2022-09-01T18:32:14.443Z,21.50
2022-09-01T18:35:08.455Z,21.50
2022-09-01T18:37:58.179Z,21.50
2022-09-01T18:40:33.286Z,21.40
2022-09-01T18:43:20.047Z,21.40
2022-09-01T18:45:57.206Z,21.30
2022-09-01T18:48:45.934Z,21.30
2022-09-01T18:51:25.091Z,21.30
2022-09-01T18:54:04.740Z,21.20
2022-09-01T18:56:45.653Z,21.20
2022-09-01T18:59:44.393Z,21.20
2022-09-01T19:02:38.930Z,21.20
2022-09-01T19:05:18.157Z,21.20
2022-09-01T19:08:01.772Z,21.20
2022-09-01T19:11:00.297Z,21.20
2022-09-01T19:13:47.578Z,21.20
2022-09-01T19:16:33.126Z,21.20
2022-09-01T19:19:12.911Z,21.20
2022-09-01T19:21:44.000Z,21.30
2022-09-01T19:24:22.022Z,21.30
2022-09-01T19:26:58.293Z,21.30
2022-09-01T19:29:33.144Z,21.40
2022-09-01T19:32:09.938Z,21.30
2022-09-01T19:34:43.940Z,21.40
2022-09-01T19:37:14.164Z,21.40
2022-09-01T19:39:48.052Z,21.40
2022-09-01T19:42:29.835Z,21.40
2022-09-01T19:45:06.864Z,21.40
2022-09-01T19:47:45.646Z,21.40
2022-09-01T19:50:21.235Z,21.40
2022-09-01T19:53:00.557Z,21.40
2022-09-01T19:55:38.008Z,21.30
2022-09-01T19:58:15.014Z,21.30
2022-09-01T20:00:53.498Z,21.30
2022-09-01T20:03:30.558Z,21.20
2022-09-01T20:06:06.175Z,21.10
2022-09-01T20:08:41.154Z,21.10
2022-09-01T20:11:18.862Z,21.00
2022-09-01T20:14:15.440Z,20.90
2022-09-01T20:16:50.626Z,20.90
2022-09-01T20:19:30.896Z,20.80
2022-09-01T20:22:17.385Z,20.80
2022-09-01T20:24:47.542Z,20.70
2022-09-01T20:27:33.165Z,20.70
2022-09-01T20:30:07.991Z,20.60
2022-09-01T20:32:45.637Z,20.60
2022-09-01T20:35:20.013Z,20.60
2022-09-01T20:37:56.662Z,20.50
2022-09-01T20:40:32.625Z,20.50
2022-09-01T20:43:22.611Z,20.50
2022-09-01T20:45:52.724Z,20.40
2022-09-01T20:48:27.853Z,20.30
2022-09-01T20:51:07.804Z,20.20
2022-09-01T20:54:00.470Z,20.10
2022-09-01T20:56:45.498Z,20.10
2022-09-01T20:59:28.703Z,20.10
2022-09-01T21:02:09.476Z,20.00
2022-09-01T21:04:57.465Z,20.00
2022-09-01T21:07:35.793Z,19.90
2022-09-01T21:10:21.277Z,19.80
2022-09-01T21:12:58.338Z,19.70
2022-09-01T21:15:40.795Z,19.60
2022-09-01T21:18:34.369Z,19.60
2022-09-01T21:21:16.394Z,19.50
2022-09-01T21:23:45.035Z,19.50
2022-09-01T21:26:13.997Z,19.40
2022-09-01T21:28:48.015Z,19.50
2022-09-01T21:31:16.885Z,19.40
2022-09-01T21:33:46.924Z,19.40
2022-09-01T21:36:15.432Z,19.30
2022-09-01T21:38:44.034Z,19.30
2022-09-01T21:41:13.402Z,19.20
2022-09-01T21:43:46.840Z,19.10
2022-09-01T21:46:16.552Z,19.10
2022-09-01T21:48:46.605Z,19.20
2022-09-01T21:51:15.111Z,19.10
2022-09-01T21:53:43.603Z,19.10
2022-09-01T21:56:12.093Z,19.10
2022-09-01T21:58:42.166Z,19.00
2022-09-01T22:01:14.183Z,19.00
2022-09-01T22:03:42.923Z,18.90
2022-09-01T22:06:14.452Z,18.90
2022-09-01T22:08:43.014Z,18.90
2022-09-01T22:11:11.817Z,18.80
2022-09-01T22:13:40.322Z,18.80
2022-09-01T22:16:09.407Z,18.80
2022-09-01T22:18:37.903Z,18.70
2022-09-01T22:21:10.323Z,18.70
2022-09-01T22:23:40.666Z,18.70
2022-09-01T22:26:15.034Z,18.70
2022-09-01T22:28:44.104Z,18.70
2022-09-01T22:31:16.022Z,18.70
2022-09-01T22:33:45.435Z,18.60
2022-09-01T22:36:22.723Z,18.60
2022-09-01T22:38:53.137Z,18.60
2022-09-01T22:41:23.900Z,18.60
2022-09-01T22:43:52.745Z,18.60
2022-09-01T22:46:22.824Z,18.60
2022-09-01T22:48:51.756Z,18.50
2022-09-01T22:51:20.792Z,18.50
2022-09-01T22:53:51.647Z,18.50
2022-09-01T22:56:24.236Z,18.50
2022-09-01T22:58:56.444Z,18.50
2022-09-01T23:01:33.116Z,18.40
2022-09-01T23:04:05.118Z,18.30
2022-09-01T23:06:36.477Z,18.20
2022-09-01T23:09:06.746Z,18.20
2022-09-01T23:11:35.536Z,18.20
2022-09-01T23:14:04.158Z,18.30
2022-09-01T23:16:33.536Z,18.30
2022-09-01T23:19:02.991Z,18.30
2022-09-01T23:21:35.597Z,18.30
2022-09-01T23:24:06.624Z,18.30
2022-09-01T23:26:35.601Z,18.20
2022-09-01T23:29:06.325Z,18.10
2022-09-01T23:31:39.138Z,18.10
2022-09-01T23:34:10.082Z,18.20
2022-09-01T23:36:38.886Z,18.20
2022-09-01T23:39:09.132Z,18.20
2022-09-01T23:41:39.919Z,18.20
2022-09-01T23:44:10.639Z,18.20
2022-09-01T23:46:43.893Z,18.30
2022-09-01T23:49:15.216Z,18.30
2022-09-01T23:51:44.986Z,18.30
2022-09-01T23:54:16.390Z,18.40
2022-09-01T23:56:44.926Z,18.40
2022-09-01T23:59:13.943Z,18.50
